Time;durP1;ratioP1;P1;durP2;ratioP2;P2;SDS_P1;SDS_P2;PMS_P1;PMS_P2;Temp;Humidity;BMP_temperature;BMP_pressure;BME280_temperature;BME280_humidity;BME280_pressure;Samples;Min_cycle;Max_cycle;Signal;HPM_P1;HPM_P2
2022/02/05 00:01:20;;;;;;;17.50;2.45;;;3.70;99.90;;;;;;4966614;28;20039;-74
2022/02/05 00:03:50;;;;;;;9.77;1.85;;;3.70;99.90;;;;;;4962190;28;20043;-76
2022/02/05 00:06:20;;;;;;;15.82;2.50;;;3.70;99.90;;;;;;4958124;28;20054;-76
2022/02/05 00:14:32;;;;;;;12.95;2.22;;;3.80;99.90;;;;;;4930416;28;20035;-75
2022/02/05 00:39:17;;;;;;;7.53;2.00;;;3.70;99.90;;;;;;4963570;28;20030;-74
2022/02/05 00:41:54;;;;;;;10.48;2.55;;;3.60;99.90;;;;;;4962522;28;20063;-74
2022/02/05 00:44:20;;;;;;;10.52;1.90;;;3.60;99.90;;;;;;4961796;28;20042;-74
2022/02/05 00:46:48;;;;;;;7.38;1.70;;;3.60;99.90;;;;;;4962734;28;20027;-74
2022/02/05 00:49:14;;;;;;;11.70;1.80;;;3.60;99.90;;;;;;4958741;28;20041;-74
2022/02/05 00:51:49;;;;;;;6.82;1.60;;;3.60;99.90;;;;;;4961839;28;20031;-74
2022/02/05 00:54:19;;;;;;;10.80;1.70;;;3.60;99.90;;;;;;4967628;28;20033;-73
2022/02/05 00:59:16;;;;;;;5.78;1.40;;;3.70;99.90;;;;;;4962215;28;20058;-74
2022/02/05 01:01:42;;;;;;;4.78;1.52;;;3.70;99.90;;;;;;4967020;28;20046;-74
2022/02/05 01:04:08;;;;;;;11.75;1.60;;;3.70;99.90;;;;;;4963750;28;20031;-74
2022/02/05 01:06:34;;;;;;;7.10;1.55;;;3.70;99.90;;;;;;4966804;28;20662;-75
2022/02/05 01:09:05;;;;;;;7.38;1.75;;;3.70;99.90;;;;;;4949590;28;20121;-74
2022/02/05 01:11:32;;;;;;;9.68;1.50;;;3.80;99.90;;;;;;4956675;28;20067;-74
2022/02/05 01:14:02;;;;;;;9.15;1.63;;;3.70;99.90;;;;;;4965812;28;20047;-74
2022/02/05 01:16:54;;;;;;;8.18;1.80;;;3.70;99.90;;;;;;4958177;28;20114;-73
2022/02/05 01:21:57;;;;;;;6.13;1.60;;;3.60;99.90;;;;;;4964208;28;20110;-74
2022/02/05 01:24:24;;;;;;;11.23;2.75;;;3.60;99.90;;;;;;4964539;28;20031;-74
2022/02/05 01:26:57;;;;;;;6.18;1.20;;;3.60;99.90;;;;;;4963952;28;20031;-74
2022/02/05 01:29:48;;;;;;;5.20;1.30;;;3.60;99.90;;;;;;4966825;28;20027;-74
2022/02/05 01:32:14;;;;;;;6.63;1.63;;;3.50;99.90;;;;;;4963196;28;20026;-74
2022/02/05 01:35:02;;;;;;;7.68;1.40;;;3.50;99.90;;;;;;4966564;28;20023;-74
2022/02/05 01:51:41;;;;;;;8.23;1.52;;;3.50;99.90;;;;;;4962811;28;20511;-74
2022/02/05 01:54:16;;;;;;;8.98;1.23;;;3.60;99.90;;;;;;4963311;28;20428;-73
2022/02/05 01:56:45;;;;;;;5.95;1.02;;;3.60;99.90;;;;;;4961266;28;20401;-73
2022/02/05 01:59:19;;;;;;;8.90;1.50;;;3.60;99.90;;;;;;4965246;28;20033;-73
2022/02/05 02:15:45;;;;;;;9.45;1.75;;;3.70;99.90;;;;;;4971980;28;20105;-73
2022/02/05 02:21:14;;;;;;;6.72;1.73;;;3.70;99.90;;;;;;4962957;28;20026;-74
2022/02/05 02:23:56;;;;;;;5.57;1.88;;;3.70;99.90;;;;;;4964628;28;20027;-73
2022/02/05 02:31:19;;;;;;;9.80;1.65;;;3.70;99.90;;;;;;4971637;28;20031;-73
2022/02/05 02:33:49;;;;;;;8.00;1.38;;;3.60;99.90;;;;;;4969363;28;20027;-73
2022/02/05 02:36:38;;;;;;;4.50;1.55;;;3.60;99.90;;;;;;4966024;28;20037;-73
2022/02/05 02:39:18;;;;;;;8.23;3.08;;;3.60;99.90;;;;;;4964425;28;20089;-73
2022/02/05 02:41:56;;;;;;;8.47;1.60;;;3.50;99.90;;;;;;4973809;28;20038;-73
2022/02/05 02:44:21;;;;;;;7.43;1.90;;;3.50;99.90;;;;;;4968150;28;20297;-74
2022/02/05 02:46:47;;;;;;;11.93;1.80;;;3.60;99.90;;;;;;4962041;28;20027;-73
2022/02/05 02:49:18;;;;;;;8.23;1.85;;;3.60;99.90;;;;;;4960905;28;20029;-73
2022/02/05 02:56:30;;;;;;;12.25;2.30;;;3.60;99.90;;;;;;4967219;28;20027;-73
2022/02/05 02:57:33;;;;;;;9.77;2.55;;;3.60;99.90;;;;;;4962213;28;20034;-73
2022/02/05 03:00:03;;;;;;;7.00;2.53;;;3.60;99.90;;;;;;4960100;28;20058;-73
2022/02/05 03:02:28;;;;;;;10.60;2.80;;;3.60;99.90;;;;;;4962400;28;20034;-73
2022/02/05 03:04:55;;;;;;;10.40;2.95;;;3.70;99.90;;;;;;4958586;28;20019;-73
2022/02/05 03:07:26;;;;;;;11.60;2.50;;;3.60;99.90;;;;;;4960637;28;20046;-73
2022/02/05 03:09:54;;;;;;;9.07;2.05;;;3.60;99.90;;;;;;4966238;28;20022;-73
2022/02/05 03:12:20;;;;;;;5.55;1.58;;;3.60;99.90;;;;;;4940687;28;20700;-73
2022/02/05 03:14:47;;;;;;;8.05;2.00;;;3.60;99.90;;;;;;4960672;28;20023;-73
2022/02/05 03:17:22;;;;;;;9.77;2.38;;;3.60;99.90;;;;;;4964663;28;20031;-73
2022/02/05 03:19:49;;;;;;;7.85;1.70;;;3.60;99.90;;;;;;4962047;28;20041;-73
2022/02/05 03:22:23;;;;;;;5.32;1.70;;;3.50;99.90;;;;;;4959332;28;20062;-73
2022/02/05 03:24:49;;;;;;;4.97;1.65;;;3.50;99.90;;;;;;4969450;28;20090;-73
2022/02/05 03:27:17;;;;;;;11.10;1.50;;;3.50;99.90;;;;;;4960449;28;20157;-74
2022/02/05 03:29:47;;;;;;;7.70;1.10;;;3.50;99.90;;;;;;4962438;28;20441;-73
2022/02/05 03:32:13;;;;;;;5.65;1.60;;;3.50;99.90;;;;;;4959869;28;20031;-73
2022/02/05 03:34:39;;;;;;;6.22;1.08;;;3.50;99.90;;;;;;4954726;28;20027;-74
2022/02/05 03:37:05;;;;;;;6.25;1.00;;;3.50;99.90;;;;;;4962945;28;20064;-75
2022/02/05 03:39:31;;;;;;;5.72;1.08;;;3.40;99.90;;;;;;4960813;28;20035;-73
2022/02/05 03:41:57;;;;;;;7.45;1.33;;;3.40;99.90;;;;;;4959301;28;20390;-73
2022/02/05 03:44:24;;;;;;;3.22;0.80;;;3.30;99.90;;;;;;4965232;28;20035;-74
2022/02/05 03:46:50;;;;;;;4.70;0.90;;;3.20;99.90;;;;;;4958063;28;20473;-73
2022/02/05 03:49:18;;;;;;;4.88;0.80;;;3.10;99.90;;;;;;4967645;28;20038;-73
2022/02/05 03:51:45;;;;;;;4.13;0.80;;;3.00;99.90;;;;;;4966376;28;20394;-73
2022/02/05 03:54:11;;;;;;;3.20;0.85;;;2.90;99.90;;;;;;4968438;28;20041;-73
2022/02/05 03:56:37;;;;;;;3.90;0.98;;;2.80;99.90;;;;;;4957925;28;20497;-73
2022/02/05 03:59:03;;;;;;;2.85;1.00;;;2.80;99.90;;;;;;4956957;28;20043;-73
2022/02/05 04:01:28;;;;;;;5.38;0.70;;;2.80;99.90;;;;;;4967919;28;20039;-74
2022/02/05 04:03:54;;;;;;;3.53;0.80;;;2.70;99.90;;;;;;4963843;28;20367;-73
2022/02/05 04:06:20;;;;;;;2.50;0.57;;;2.70;99.90;;;;;;4968048;28;20085;-72
2022/02/05 04:08:47;;;;;;;5.70;0.93;;;2.70;99.90;;;;;;4972310;28;20086;-73
2022/02/05 04:11:28;;;;;;;5.68;1.00;;;2.70;99.90;;;;;;4959498;28;20035;-73
2022/02/05 04:16:41;;;;;;;3.53;0.85;;;2.60;99.90;;;;;;4960794;28;20038;-73
2022/02/05 04:19:07;;;;;;;6.35;0.73;;;2.60;99.90;;;;;;4978927;28;20038;-73
2022/02/05 04:21:33;;;;;;;4.88;1.00;;;2.60;99.90;;;;;;4965667;28;20037;-73
2022/02/05 04:24:02;;;;;;;5.95;1.00;;;2.50;99.90;;;;;;4961900;28;20039;-75
2022/02/05 04:26:29;;;;;;;6.20;1.35;;;2.50;99.90;;;;;;4968160;28;20039;-73
2022/02/05 04:28:56;;;;;;;5.05;1.40;;;2.50;99.90;;;;;;4962453;28;20037;-73
2022/02/05 04:31:22;;;;;;;6.00;1.08;;;2.50;99.90;;;;;;4965404;28;20051;-74
2022/02/05 04:33:48;;;;;;;4.90;1.10;;;2.50;99.90;;;;;;4960111;28;20051;-73
2022/02/05 04:36:15;;;;;;;3.58;0.90;;;2.50;99.90;;;;;;4965891;28;20444;-73
2022/02/05 04:38:44;;;;;;;3.60;0.90;;;2.50;99.90;;;;;;4961137;28;20043;-73
2022/02/05 04:44:09;;;;;;;5.50;1.80;;;2.50;99.90;;;;;;4960803;28;20114;-73
2022/02/05 04:46:55;;;;;;;6.05;0.80;;;2.40;99.90;;;;;;4961082;28;20070;-73
2022/02/05 04:56:45;;;;;;;6.78;1.58;;;2.40;99.90;;;;;;4965694;28;20031;-73
2022/02/05 05:11:51;;;;;;;8.30;1.90;;;2.50;99.90;;;;;;4960258;28;20030;-74
2022/02/05 05:21:59;;;;;;;15.35;1.92;;;2.50;99.90;;;;;;4963603;28;20401;-73
2022/02/05 05:24:25;;;;;;;12.38;1.50;;;2.60;99.90;;;;;;4972257;28;20546;-73
2022/02/05 05:26:51;;;;;;;5.55;1.63;;;2.50;99.90;;;;;;4975110;28;20026;-74
2022/02/05 05:29:18;;;;;;;9.65;1.38;;;2.60;99.90;;;;;;4961304;28;20026;-73
2022/02/05 05:31:43;;;;;;;10.07;1.65;;;2.60;99.90;;;;;;4965196;28;20505;-73
2022/02/05 05:34:09;;;;;;;18.90;1.90;;;2.60;99.90;;;;;;4971087;28;20243;-73
2022/02/05 05:36:36;;;;;;;13.93;1.50;;;2.60;99.90;;;;;;4962810;28;20090;-73
2022/02/05 05:39:02;;;;;;;10.63;1.80;;;2.60;99.90;;;;;;4966911;28;20030;-73
2022/02/05 05:41:34;;;;;;;10.77;1.25;;;2.60;99.90;;;;;;4967246;28;20035;-73
2022/02/05 05:46:44;;;;;;;10.20;1.60;;;2.60;99.90;;;;;;4969870;28;20030;-73
2022/02/05 05:51:35;;;;;;;9.07;1.75;;;2.60;99.90;;;;;;4967394;28;20034;-73
2022/02/05 05:54:01;;;;;;;11.10;1.45;;;2.60;99.90;;;;;;4968677;28;20121;-73
2022/02/05 05:56:27;;;;;;;16.48;2.58;;;2.60;99.90;;;;;;4965972;28;20031;-73
2022/02/05 05:58:53;;;;;;;15.68;1.95;;;2.60;99.90;;;;;;4964899;28;20042;-74
2022/02/05 06:01:18;;;;;;;9.38;1.50;;;2.60;99.90;;;;;;4966215;28;20034;-73
2022/02/05 06:03:44;;;;;;;8.60;2.00;;;2.70;99.90;;;;;;4960887;28;20394;-73
2022/02/05 06:06:10;;;;;;;7.25;1.30;;;2.70;99.90;;;;;;4972321;28;20102;-73
2022/02/05 06:08:35;;;;;;;11.38;1.50;;;2.70;99.90;;;;;;4968473;28;20082;-74
2022/02/05 06:11:01;;;;;;;8.07;1.88;;;2.60;99.90;;;;;;4969887;28;20042;-73
2022/02/05 06:13:28;;;;;;;9.25;1.60;;;2.60;99.90;;;;;;4967883;28;20015;-73
2022/02/05 06:15:55;;;;;;;9.15;1.60;;;2.60;99.90;;;;;;4966315;28;20059;-72
2022/02/05 06:18:24;;;;;;;12.48;1.75;;;2.60;99.90;;;;;;4960909;28;20026;-74
2022/02/05 06:20:50;;;;;;;14.23;1.77;;;2.60;99.90;;;;;;4983256;28;20045;-73
2022/02/05 06:23:15;;;;;;;12.98;2.00;;;2.50;99.90;;;;;;4962812;28;20495;-74
2022/02/05 06:25:42;;;;;;;11.07;2.17;;;2.50;99.90;;;;;;4957309;28;20030;-73
2022/02/05 06:28:10;;;;;;;9.98;1.52;;;2.60;99.90;;;;;;4966743;28;20039;-74
2022/02/05 06:30:36;;;;;;;6.03;1.80;;;2.50;99.90;;;;;;4962789;28;20401;-73
2022/02/05 06:33:02;;;;;;;16.45;2.47;;;2.50;99.90;;;;;;4961699;28;20075;-73
2022/02/05 06:35:28;;;;;;;15.05;1.95;;;2.50;99.90;;;;;;4966691;28;20540;-73
2022/02/05 06:37:54;;;;;;;14.13;3.35;;;2.50;99.90;;;;;;4963129;28;20071;-75
2022/02/05 06:40:19;;;;;;;14.68;2.25;;;2.50;99.90;;;;;;4964818;28;20042;-75
2022/02/05 06:42:46;;;;;;;10.18;1.83;;;2.40;99.90;;;;;;4983801;28;20031;-75
2022/02/05 06:45:13;;;;;;;15.63;2.33;;;2.50;99.90;;;;;;4970749;28;20027;-75
2022/02/05 06:47:39;;;;;;;11.15;2.00;;;2.50;99.90;;;;;;4964580;28;20058;-75
2022/02/05 06:50:05;;;;;;;13.65;1.88;;;2.50;99.90;;;;;;4967461;28;20113;-75
2022/02/05 06:52:31;;;;;;;9.95;1.95;;;2.50;99.90;;;;;;4965935;28;20022;-75
2022/02/05 06:54:56;;;;;;;11.35;2.67;;;2.50;99.90;;;;;;4967305;28;20027;-75
2022/02/05 06:57:22;;;;;;;9.65;1.83;;;2.50;99.90;;;;;;4959659;28;20034;-75
2022/02/05 06:59:47;;;;;;;11.00;1.92;;;2.50;99.90;;;;;;4966781;28;20051;-75
2022/02/05 07:02:14;;;;;;;11.32;1.92;;;2.50;99.90;;;;;;4959792;28;20122;-75
2022/02/05 07:04:41;;;;;;;16.88;2.05;;;2.50;99.90;;;;;;4957665;28;20023;-74
2022/02/05 07:07:06;;;;;;;14.82;2.10;;;2.50;99.90;;;;;;4976544;28;20039;-74
2022/02/05 07:09:32;;;;;;;10.82;1.85;;;2.60;99.90;;;;;;4963164;28;20517;-75
2022/02/05 07:12:00;;;;;;;9.77;1.90;;;2.60;99.90;;;;;;4963104;28;20038;-75
2022/02/05 07:14:33;;;;;;;19.13;2.38;;;2.60;99.90;;;;;;4957917;28;20146;-75
2022/02/05 07:17:07;;;;;;;9.20;1.63;;;2.60;99.90;;;;;;4960191;28;20031;-76
2022/02/05 07:21:58;;;;;;;16.58;1.80;;;2.60;99.90;;;;;;4958182;28;20057;-74
2022/02/05 07:29:37;;;;;;;12.15;1.98;;;2.60;99.90;;;;;;4958163;28;20031;-74
2022/02/05 07:32:03;;;;;;;9.25;1.90;;;2.60;99.90;;;;;;4957880;28;20031;-75
2022/02/05 07:34:31;;;;;;;17.77;2.15;;;2.60;99.90;;;;;;4960092;28;20027;-75
2022/02/05 07:37:06;;;;;;;13.15;2.15;;;2.60;99.90;;;;;;4960275;28;20038;-76
2022/02/05 07:39:41;;;;;;;15.32;2.58;;;2.60;99.90;;;;;;4962078;28;20054;-76
2022/02/05 07:42:08;;;;;;;21.52;4.05;;;2.70;99.90;;;;;;4964081;28;20030;-76
2022/02/05 07:44:36;;;;;;;18.13;2.15;;;2.80;99.90;;;;;;4974968;28;20495;-74
2022/02/05 07:47:02;;;;;;;13.73;1.98;;;2.80;99.90;;;;;;4958897;28;20031;-73
2022/02/05 07:49:35;;;;;;;16.20;3.05;;;2.90;99.90;;;;;;4960582;28;20081;-75
2022/02/05 07:52:01;;;;;;;14.50;2.22;;;2.80;99.90;;;;;;4955685;28;20039;-75
2022/02/05 07:54:27;;;;;;;14.75;2.17;;;2.80;99.90;;;;;;4957324;28;20180;-74
2022/02/05 07:56:53;;;;;;;20.13;2.15;;;2.70;99.90;;;;;;4963150;28;20073;-74
2022/02/05 07:59:19;;;;;;;13.48;2.25;;;2.70;99.90;;;;;;4966042;28;20110;-74
2022/02/05 08:01:46;;;;;;;15.07;2.17;;;2.70;99.90;;;;;;4960072;28;20038;-75
2022/02/05 08:04:13;;;;;;;12.60;2.08;;;2.70;99.90;;;;;;4959833;28;20051;-74
2022/02/05 08:06:39;;;;;;;12.45;2.28;;;2.70;99.90;;;;;;4958657;28;20069;-74
2022/02/05 08:09:21;;;;;;;18.05;2.75;;;2.80;99.90;;;;;;4962907;28;20066;-74
2022/02/05 08:11:59;;;;;;;13.60;2.25;;;2.80;99.90;;;;;;4961794;28;20175;-75
2022/02/05 08:14:27;;;;;;;18.23;2.67;;;2.80;99.90;;;;;;4966866;28;20032;-75
2022/02/05 08:17:02;;;;;;;14.98;2.38;;;2.80;99.90;;;;;;4958318;28;20039;-75
2022/02/05 08:19:28;;;;;;;16.83;2.83;;;2.80;99.90;;;;;;4963171;28;20126;-74
2022/02/05 08:21:54;;;;;;;16.63;2.95;;;2.80;99.90;;;;;;4965410;28;20169;-76
2022/02/05 08:24:20;;;;;;;10.55;2.05;;;2.90;99.90;;;;;;4958710;28;20031;-76
2022/02/05 08:26:46;;;;;;;16.98;2.30;;;2.90;99.90;;;;;;4957194;28;20030;-74
2022/02/05 08:29:13;;;;;;;24.13;2.58;;;2.90;99.90;;;;;;4961479;28;20383;-74
2022/02/05 08:31:39;;;;;;;15.55;2.67;;;2.90;99.90;;;;;;4964117;28;20612;-76
2022/02/05 08:34:05;;;;;;;14.43;2.65;;;3.00;99.90;;;;;;4959767;28;20114;-75
2022/02/05 08:36:39;;;;;;;16.48;2.78;;;2.90;99.90;;;;;;4964484;28;20377;-75
2022/02/05 08:39:06;;;;;;;22.77;3.50;;;3.00;99.90;;;;;;4960351;28;20102;-75
2022/02/05 08:41:32;;;;;;;19.92;2.58;;;3.10;99.90;;;;;;4966746;28;20031;-76
2022/02/05 08:43:58;;;;;;;16.88;3.17;;;3.10;99.90;;;;;;4969152;28;20031;-74
2022/02/05 08:46:24;;;;;;;20.70;2.85;;;3.10;99.90;;;;;;4962345;28;20050;-75
2022/02/05 08:48:50;;;;;;;21.05;3.55;;;3.20;99.90;;;;;;4956658;28;20098;-75
2022/02/05 08:51:16;;;;;;;29.35;3.53;;;3.20;99.90;;;;;;4963007;28;20037;-75
2022/02/05 08:53:42;;;;;;;25.00;3.70;;;3.20;99.90;;;;;;4970341;28;20034;-75
2022/02/05 08:56:08;;;;;;;16.10;2.72;;;3.30;99.90;;;;;;4965480;28;20030;-75
2022/02/05 08:58:33;;;;;;;16.05;3.08;;;3.40;99.90;;;;;;4957629;28;20019;-75
2022/02/05 09:01:10;;;;;;;28.50;5.03;;;3.50;99.90;;;;;;4957606;28;20031;-75
2022/02/05 09:03:46;;;;;;;23.83;3.13;;;3.60;99.90;;;;;;4959812;28;20035;-75
2022/02/05 09:06:12;;;;;;;16.33;2.40;;;3.70;99.90;;;;;;4960166;28;20917;-75
2022/02/05 09:08:50;;;;;;;20.00;2.97;;;3.80;99.90;;;;;;4962320;28;20027;-75
2022/02/05 09:11:30;;;;;;;17.25;3.30;;;3.90;99.90;;;;;;4964573;28;20095;-75
2022/02/05 09:14:12;;;;;;;23.38;3.08;;;3.90;99.90;;;;;;4963477;28;20058;-75
2022/02/05 09:16:39;;;;;;;20.52;3.53;;;3.90;99.90;;;;;;4960481;28;20032;-75
2022/02/05 09:19:04;;;;;;;16.63;3.33;;;3.80;99.90;;;;;;4956909;28;20039;-75
2022/02/05 09:21:31;;;;;;;19.80;3.03;;;3.90;99.90;;;;;;4951489;28;20629;-75
2022/02/05 09:23:59;;;;;;;20.27;3.45;;;3.90;99.90;;;;;;4963140;28;20045;-75
2022/02/05 09:26:26;;;;;;;32.58;4.18;;;3.90;99.90;;;;;;4956031;28;20118;-76
2022/02/05 09:28:53;;;;;;;21.77;2.90;;;3.90;99.90;;;;;;4981466;28;20022;-74
2022/02/05 09:31:31;;;;;;;13.30;2.90;;;3.90;99.90;;;;;;4968501;28;20164;-75
2022/02/05 09:33:58;;;;;;;20.52;2.85;;;4.00;99.90;;;;;;4970224;28;20027;-76
2022/02/05 09:36:26;;;;;;;16.40;2.92;;;4.00;99.90;;;;;;4963500;28;20031;-75
2022/02/05 09:38:55;;;;;;;15.50;3.63;;;4.10;99.90;;;;;;4957491;28;20041;-75
2022/02/05 09:41:22;;;;;;;17.75;3.00;;;4.10;99.90;;;;;;4965555;28;20126;-79
2022/02/05 09:43:50;;;;;;;18.58;2.45;;;4.10;99.90;;;;;;4978218;28;20058;-77
2022/02/05 09:46:17;;;;;;;20.38;2.72;;;4.20;99.90;;;;;;4968817;28;20050;-79
2022/02/05 09:48:45;;;;;;;14.45;3.30;;;4.20;99.90;;;;;;4964596;28;20026;-79
2022/02/05 09:51:18;;;;;;;16.15;3.03;;;4.20;99.90;;;;;;4965723;28;20070;-78
2022/02/05 09:53:49;;;;;;;16.75;2.60;;;4.10;99.90;;;;;;4964892;28;20028;-79
2022/02/05 09:56:17;;;;;;;25.42;3.95;;;4.20;99.90;;;;;;4966147;28;20031;-77
2022/02/05 09:58:43;;;;;;;18.42;3.72;;;4.20;99.90;;;;;;4964738;28;20042;-78
2022/02/05 10:01:14;;;;;;;13.82;3.05;;;4.10;99.90;;;;;;4964959;28;20488;-79
2022/02/05 10:03:42;;;;;;;13.85;2.20;;;4.20;99.90;;;;;;4965795;28;20035;-78
2022/02/05 10:06:23;;;;;;;11.63;2.33;;;4.40;99.90;;;;;;4964757;28;20058;-78
2022/02/05 10:09:09;;;;;;;24.70;3.17;;;4.50;99.90;;;;;;4966672;28;20031;-79
2022/02/05 10:12:03;;;;;;;17.80;2.55;;;4.50;99.90;;;;;;4969770;28;20037;-77
2022/02/05 10:14:35;;;;;;;17.58;2.30;;;4.50;99.90;;;;;;4968886;28;20039;-78
2022/02/05 10:17:03;;;;;;;15.90;2.17;;;4.50;99.90;;;;;;4967602;28;20520;-78
2022/02/05 10:19:47;;;;;;;18.92;2.65;;;4.50;99.90;;;;;;4966732;28;20042;-78
2022/02/05 10:22:13;;;;;;;12.50;2.05;;;4.50;99.90;;;;;;4966254;28;20050;-77
2022/02/05 10:24:59;;;;;;;10.93;2.90;;;4.50;99.90;;;;;;4966558;28;20055;-78
2022/02/05 10:27:32;;;;;;;15.63;2.53;;;4.60;99.90;;;;;;4968144;28;20051;-78
2022/02/05 10:30:09;;;;;;;21.33;3.08;;;4.70;99.90;;;;;;4968628;28;20035;-78
2022/02/05 10:32:46;;;;;;;20.73;3.13;;;4.80;99.90;;;;;;4969849;28;20158;-78
2022/02/05 10:35:38;;;;;;;19.58;2.50;;;4.90;99.90;;;;;;4968615;28;20028;-77
2022/02/05 10:38:30;;;;;;;20.27;2.45;;;4.90;99.90;;;;;;4964924;28;20389;-78
2022/02/05 10:42:59;;;;;;;19.25;2.92;;;4.80;99.90;;;;;;4970802;28;20027;-78
2022/02/05 10:43:37;;;;;;;19.88;2.42;;;4.80;99.90;;;;;;4967327;28;20058;-77
2022/02/05 10:46:04;;;;;;;21.75;2.53;;;4.80;99.90;;;;;;4968431;28;20490;-77
2022/02/05 10:48:31;;;;;;;12.20;1.92;;;4.90;99.90;;;;;;4971485;28;20023;-77
2022/02/05 10:51:00;;;;;;;17.25;2.80;;;5.00;99.90;;;;;;4972203;28;20027;-76
2022/02/05 10:53:37;;;;;;;12.82;2.83;;;4.90;99.90;;;;;;4980859;28;20031;-77
2022/02/05 11:07:09;;;;;;;23.15;2.90;;;5.10;99.90;;;;;;4965685;28;20035;-77
2022/02/05 11:09:37;;;;;;;25.48;3.50;;;5.20;99.90;;;;;;4964974;28;20385;-78
2022/02/05 11:20:22;;;;;;;12.30;2.17;;;5.40;99.90;;;;;;4966760;28;20773;-76
2022/02/05 11:22:51;;;;;;;17.65;2.78;;;5.40;99.90;;;;;;4964861;28;20101;-78
2022/02/05 11:25:19;;;;;;;14.82;2.40;;;5.50;99.90;;;;;;4965075;28;20508;-78
2022/02/05 11:27:47;;;;;;;19.40;2.88;;;5.50;99.90;;;;;;4973242;28;20182;-78
2022/02/05 11:30:25;;;;;;;15.50;3.00;;;5.50;99.90;;;;;;4966422;28;20035;-78
2022/02/05 11:32:51;;;;;;;14.40;2.80;;;5.50;99.90;;;;;;4962553;28;20019;-79
2022/02/05 11:35:29;;;;;;;14.55;2.65;;;5.60;99.90;;;;;;4963290;28;20023;-77
2022/02/05 11:38:02;;;;;;;14.25;2.70;;;5.60;99.90;;;;;;4963254;28;20039;-77
2022/02/05 11:40:47;;;;;;;15.02;2.53;;;5.70;99.90;;;;;;4963075;28;20037;-76
2022/02/05 11:43:25;;;;;;;16.67;2.40;;;5.70;99.90;;;;;;4961660;28;20501;-76
2022/02/05 11:46:17;;;;;;;15.65;3.13;;;5.80;99.90;;;;;;4964293;28;20037;-77
2022/02/05 11:48:59;;;;;;;14.35;2.95;;;5.80;99.90;;;;;;4969101;28;20206;-77
2022/02/05 11:51:45;;;;;;;16.02;2.65;;;5.80;99.90;;;;;;4961733;28;20028;-78
2022/02/05 11:54:17;;;;;;;11.93;2.40;;;5.90;99.90;;;;;;4977699;28;20159;-77
2022/02/05 11:56:55;;;;;;;19.23;2.70;;;5.90;99.90;;;;;;4971330;28;20057;-78
2022/02/05 11:59:26;;;;;;;14.23;2.92;;;5.90;99.90;;;;;;4965666;28;20118;-79
2022/02/05 12:02:15;;;;;;;19.85;3.00;;;5.90;99.90;;;;;;4973428;28;20030;-78
2022/02/05 12:04:41;;;;;;;20.73;3.00;;;6.00;99.90;;;;;;4959531;28;20086;-78
2022/02/05 12:07:08;;;;;;;19.15;2.25;;;6.20;99.90;;;;;;4966665;28;20073;-78
2022/02/05 12:09:42;;;;;;;12.32;1.75;;;6.20;99.90;;;;;;4969370;28;20035;-78
2022/02/05 12:12:40;;;;;;;14.18;2.38;;;6.30;99.90;;;;;;4968528;28;20022;-78
2022/02/05 12:15:18;;;;;;;16.58;2.40;;;6.20;99.90;;;;;;4962551;28;20109;-78
2022/02/05 12:26:25;;;;;;;18.03;2.67;;;6.10;99.90;;;;;;4962369;28;20027;-78
2022/02/05 12:28:54;;;;;;;15.32;3.45;;;6.10;99.90;;;;;;4962544;28;20541;-78
2022/02/05 12:31:28;;;;;;;9.32;2.65;;;6.10;99.90;;;;;;4964382;28;20038;-77
2022/02/05 12:33:53;;;;;;;11.77;1.98;;;6.00;99.90;;;;;;4965085;28;20023;-77
2022/02/05 12:36:33;;;;;;;12.35;2.20;;;6.00;99.90;;;;;;4962955;28;20081;-77
2022/02/05 12:39:02;;;;;;;17.80;2.45;;;6.00;99.90;;;;;;4962619;28;20106;-76
2022/02/05 12:41:30;;;;;;;13.27;2.47;;;6.00;99.90;;;;;;4965585;28;20400;-77
2022/02/05 12:44:06;;;;;;;19.63;3.10;;;5.80;99.90;;;;;;4964510;28;20042;-77
2022/02/05 12:47:03;;;;;;;22.73;2.70;;;5.90;99.90;;;;;;4963712;28;20027;-78
2022/02/05 12:49:36;;;;;;;16.60;2.53;;;5.80;99.90;;;;;;4963091;28;20113;-78
2022/02/05 12:52:02;;;;;;;12.32;2.15;;;5.80;99.90;;;;;;4961722;28;20027;-77
2022/02/05 12:54:30;;;;;;;15.18;2.67;;;5.80;99.90;;;;;;4959633;28;20033;-78
2022/02/05 12:56:58;;;;;;;13.57;2.33;;;5.90;99.90;;;;;;4962347;28;20042;-77
2022/02/05 12:59:38;;;;;;;13.73;2.88;;;6.00;99.90;;;;;;4964442;28;20031;-77
2022/02/05 13:02:06;;;;;;;20.52;3.47;;;6.00;99.90;;;;;;4962064;28;20039;-77
2022/02/05 13:04:32;;;;;;;16.42;2.92;;;6.00;99.90;;;;;;4963811;28;20070;-77
2022/02/05 13:07:09;;;;;;;18.65;3.70;;;6.10;99.90;;;;;;4963845;28;20039;-77
2022/02/05 13:12:17;;;;;;;16.45;3.92;;;6.00;99.90;;;;;;4958900;28;20239;-77
2022/02/05 13:15:00;;;;;;;14.20;2.97;;;5.90;99.90;;;;;;4964382;28;20023;-75
2022/02/05 13:17:32;;;;;;;16.67;2.83;;;5.80;99.90;;;;;;4959615;28;20038;-75
2022/02/05 13:33:46;;;;;;;16.83;2.97;;;6.00;99.90;;;;;;4958226;28;20397;-75
2022/02/05 13:36:22;;;;;;;14.07;3.42;;;6.10;99.90;;;;;;4974600;28;20194;-73
2022/02/05 13:39:38;;;;;;;15.25;2.28;;;6.10;99.90;;;;;;4957919;28;20136;-72
2022/02/05 13:44:39;;;;;;;17.75;3.08;;;6.10;99.90;;;;;;4964770;28;20031;-72
2022/02/05 13:47:16;;;;;;;;;;;6.20;99.90;;;;;;4968071;28;20392;-73
2022/02/05 13:49:42;;;;;;;8.73;2.33;;;6.20;99.90;;;;;;4963358;28;19910;-71
2022/02/05 13:52:12;;;;;;;16.42;2.53;;;6.20;99.90;;;;;;4963083;28;20036;-73
2022/02/05 13:54:41;;;;;;;12.85;2.50;;;6.20;99.90;;;;;;4963093;28;20025;-74
2022/02/05 13:57:09;;;;;;;13.05;2.72;;;6.10;99.90;;;;;;4963640;28;20034;-72
2022/02/05 13:59:34;;;;;;;11.82;1.98;;;6.20;99.90;;;;;;4965106;28;20020;-73
2022/02/05 14:02:13;;;;;;;13.30;2.20;;;6.10;99.90;;;;;;4962601;28;20035;-74
2022/02/05 14:04:39;;;;;;;11.73;2.30;;;6.10;99.90;;;;;;4961740;28;20023;-73
2022/02/05 14:07:04;;;;;;;14.43;2.88;;;6.10;99.90;;;;;;4962134;28;20038;-74
2022/02/05 14:09:35;;;;;;;12.98;2.85;;;6.10;99.90;;;;;;4969826;28;20046;-75
2022/02/05 14:12:33;;;;;;;15.32;2.58;;;6.10;99.90;;;;;;4976033;28;20396;-75
2022/02/05 14:15:03;;;;;;;13.13;2.15;;;6.10;99.90;;;;;;4935383;28;20122;-74
2022/02/05 14:17:30;;;;;;;13.70;2.67;;;6.00;99.90;;;;;;4959325;28;20034;-75
2022/02/05 14:20:10;;;;;;;17.08;2.03;;;6.00;99.90;;;;;;4940953;28;20058;-75
2022/02/05 14:22:38;;;;;;;12.60;2.13;;;6.00;99.90;;;;;;4961136;28;20035;-75
2022/02/05 14:25:06;;;;;;;11.45;2.03;;;6.00;99.90;;;;;;4963258;28;20076;-75
2022/02/05 14:27:33;;;;;;;15.88;3.22;;;6.00;99.90;;;;;;4965004;28;20036;-75
2022/02/05 14:30:08;;;;;;;15.68;2.83;;;6.00;99.90;;;;;;4964900;28;20027;-75
2022/02/05 14:40:30;;;;;;;10.20;2.33;;;6.00;99.90;;;;;;4961343;28;20039;-75
2022/02/05 14:42:56;;;;;;;18.15;3.42;;;6.00;99.90;;;;;;4978217;28;20050;-75
2022/02/05 14:45:21;;;;;;;12.20;2.42;;;6.00;99.90;;;;;;4961178;28;20054;-75
2022/02/05 14:47:47;;;;;;;14.82;2.60;;;5.90;99.90;;;;;;4962007;28;20058;-74
2022/02/05 14:50:13;;;;;;;9.77;2.55;;;5.90;99.90;;;;;;4962952;28;20039;-75
2022/02/05 14:52:59;;;;;;;15.40;2.50;;;5.90;99.90;;;;;;4960278;28;20090;-75
2022/02/05 14:55:25;;;;;;;9.80;2.70;;;5.90;99.90;;;;;;4910604;29;20131;-75
2022/02/05 14:57:51;;;;;;;15.32;2.58;;;5.90;99.90;;;;;;4911666;29;20550;-75
2022/02/05 15:00:20;;;;;;;17.45;2.92;;;5.90;99.90;;;;;;4896472;29;20121;-75
2022/02/05 15:02:45;;;;;;;10.82;2.40;;;5.80;99.90;;;;;;4912557;29;20036;-74
2022/02/05 15:05:12;;;;;;;12.90;2.70;;;5.80;99.90;;;;;;4899768;29;20059;-75
2022/02/05 15:07:42;;;;;;;10.00;2.40;;;5.90;99.90;;;;;;4912023;29;20036;-75
2022/02/05 15:10:10;;;;;;;14.40;2.45;;;5.80;99.90;;;;;;4910094;29;20123;-75
2022/02/05 15:12:37;;;;;;;9.40;2.40;;;5.90;99.90;;;;;;4910878;29;20162;-75
2022/02/05 15:15:12;;;;;;;17.05;2.35;;;5.90;99.90;;;;;;4912883;29;20028;-75
2022/02/05 15:17:43;;;;;;;9.90;2.45;;;5.80;99.90;;;;;;4911760;29;20091;-75
2022/02/05 15:20:10;;;;;;;14.95;2.53;;;5.80;99.90;;;;;;4911780;29;20178;-75
2022/02/05 15:22:36;;;;;;;14.40;2.50;;;5.80;99.90;;;;;;4903947;29;20136;-76
2022/02/05 15:25:01;;;;;;;11.90;2.65;;;5.80;99.90;;;;;;4899921;29;20466;-76
2022/02/05 15:27:27;;;;;;;12.32;2.70;;;5.80;99.90;;;;;;4908933;29;20032;-75
2022/02/05 15:29:52;;;;;;;13.85;2.50;;;5.80;99.90;;;;;;4915169;29;20052;-75
2022/02/05 15:32:18;;;;;;;14.05;3.15;;;5.80;99.90;;;;;;4935011;28;20528;-75
2022/02/05 15:34:44;;;;;;;11.02;2.63;;;5.80;99.90;;;;;;4963181;28;20027;-75
2022/02/05 15:37:17;;;;;;;13.10;2.75;;;5.80;99.90;;;;;;4963716;28;20027;-75
2022/02/05 15:45:05;;;;;;;8.82;2.55;;;5.70;99.90;;;;;;4962064;28;20031;-75
2022/02/05 15:47:31;;;;;;;9.85;2.58;;;5.70;99.90;;;;;;4962667;28;20511;-75
2022/02/05 15:49:57;;;;;;;15.05;3.63;;;5.70;99.90;;;;;;4966389;28;20031;-75
2022/02/05 15:52:23;;;;;;;12.68;3.33;;;5.70;99.90;;;;;;4961246;28;20027;-76
2022/02/05 15:54:50;;;;;;;19.25;3.50;;;5.60;99.90;;;;;;4959667;28;20536;-75
2022/02/05 16:02:11;;;;;;;8.82;2.58;;;5.60;99.90;;;;;;4960468;28;20089;-75
2022/02/05 16:04:36;;;;;;;17.33;3.03;;;5.60;99.90;;;;;;4967605;28;20469;-76
2022/02/05 16:07:02;;;;;;;8.00;3.13;;;5.60;99.90;;;;;;4963310;28;20085;-75
2022/02/05 16:09:28;;;;;;;11.43;2.42;;;5.70;99.90;;;;;;4967930;28;20031;-75